EDT,Max TemperatureF,Mean TemperatureF,Min TemperatureF,Max Dew PointF,MeanDew PointF,Min DewpointF,Max Humidity, Mean Humidity, Min Humidity, Max Sea Level PressureIn, Mean Sea Level PressureIn, Min Sea Level PressureIn, Max VisibilityMiles, Mean VisibilityMiles, Min VisibilityMiles, Max Wind SpeedMPH, Mean Wind SpeedMPH, Max Gust SpeedMPH,PrecipitationIn, CloudCover, Events, WindDirDegrees
2013-3-1,32,27,22,27,20,16,92,78,63,30.17,30.09,29.99,10,10,10,14,7,18,0.00,7,,26
2013-3-2,29,23,17,18,15,12,80,69,58,30.17,30.13,30.10,10,10,10,16,7,20,0.00,5,,352
2013-3-3,31,23,14,16,14,12,88,71,53,30.13,30.09,30.02,10,10,10,18,8,24,0.00,3,,317
2013-3-4,34,23,11,15,14,9,96,70,43,30.19,30.13,30.09,10,10,8,9,2,12,0.00,0,,98
2013-3-5,36,32,27,26,21,16,92,72,51,30.11,29.92,29.82,10,8,0,20,10,29,T,8,Fog-Snow,59
2013-3-6,37,32,27,28,26,21,85,78,70,30.26,30.11,29.88,10,10,8,20,9,28,0.00,8,,353
2013-3-7,37,31,24,29,25,19,85,71,56,30.43,30.35,30.23,10,10,9,13,7,17,0.00,7,,335
2013-3-8,40,30,19,23,20,17,92,70,48,30.53,30.47,30.42,10,9,5,9,1,14,0.00,0,,171
2013-3-9,43,35,27,33,27,20,78,68,57,30.40,30.21,29.99,10,10,9,17,7,26,T,2,,147
2013-3-10,59,50,41,45,39,33,89,73,57,29.96,29.85,29.71,10,8,4,20,9,23,0.11,6,Rain,162
2013-3-11,54,44,34,48,43,31,100,80,59,29.72,29.61,29.51,10,6,2,23,10,32,0.18,8,Rain,201
2013-3-12,34,32,30,31,28,21,92,78,64,29.93,29.84,29.72,10,4,0,17,11,22,0.09,8,Fog-Rain-Snow,255
2013-3-13,30,25,20,28,21,12,92,73,53,30.29,30.02,29.88,10,4,1,24,12,32,0.03,7,Snow,289
2013-3-14,40,29,17,23,17,12,81,61,40,30.31,30.24,30.13,10,10,10,15,5,17,0.00,1,,249
2013-3-15,43,37,31,35,31,24,92,80,67,30.13,29.95,29.84,10,5,2,12,7,,0.09,5,Rain,260
2013-3-16,35,31,26,34,28,21,100,86,72,30.10,29.86,29.71,10,6,1,14,8,17,0.04,7,Rain-Snow,26
2013-3-17,34,30,25,21,18,16,75,63,51,30.27,30.18,30.08,10,10,8,21,9,26,T,4,Snow,45
2013-3-18,34,30,26,34,27,18,100,84,68,30.12,29.76,29.56,10,4,1,26,10,35,0.07,7,Rain-Snow,125
2013-3-19,29,25,20,23,16,14,84,69,53,30.01,29.83,29.71,10,4,0,25,17,35,T,6,Fog-Snow,260
2013-3-20,27,21,14,16,14,10,84,71,57,30.02,29.99,29.96,10,4,1,22,12,29,T,7,Snow,280
2013-3-21,29,20,11,23,17,10,96,80,63,30.03,29.96,29.90,10,5,1,21,9,25,T,7,Snow,276
2013-3-22,39,32,24,24,20,18,81,70,59,30.09,30.03,29.99,10,10,9,15,7,20,0.00,5,,287
2013-3-23,36,29,22,21,20,18,92,77,61,30.16,30.10,30.06,10,10,7,10,4,14,0.00,4,,350
2013-3-24,39,31,22,24,23,19,88,69,50,30.05,29.86,29.68,10,10,8,20,8,30,0.00,5,,54
2013-3-25,37,34,30,28,25,22,78,69,59,30.00,29.76,29.61,10,10,3,22,12,30,T,8,Snow,8
2013-3-26,42,36,30,30,28,25,85,72,59,30.20,30.11,30.00,10,10,5,20,11,24,T,8,Snow,311
2013-3-27,46,38,29,31,24,18,92,65,37,30.29,30.25,30.20,10,10,10,23,11,30,0.00,2,,300
2013-3-28,52,41,29,29,23,20,85,59,32,30.33,30.30,30.27,10,10,10,15,7,20,0.00,0,,294
2013-3-29,53,38,23,26,20,18,88,57,26,30.33,30.29,30.24,10,10,10,15,4,20,0.00,0,,305
2013-3-30,56,39,22,32,25,19,88,58,28,30.25,30.12,29.92,10,10,6,16,6,33,0.00,1,,193
2013-3-31,57,47,36,43,37,30,100,74,47,29.90,29.75,29.69,10,7,1,24,12,31,0.07,7,Rain,259